Meteo Giornale » Osservazioni meteo Messico » Puerto Vallarta-Lic
ore: 16:51 - Osservazioni Meteo Puerto Vallarta-Lic
Lat. 20° 41' N Lon. 105° 15' W Alt. 6 metri s.l.m.
32 °C
Nuvoloso
Temp. 24 Ore
24 °C
33 °C
Ovest/Nord-Ovest
13 Km/h
Dew point 25 °C
Umidità 66 %
Visibilità 10 Km
Il sole sorge alle ore 06:44
Il sole tramonta alle ore 19:17
| Data e Ora | Cielo e Fenomeni | T °C | DP °C | Um. % | Pres. hPa | Vis. km | Vento km/h | |
|---|---|---|---|---|---|---|---|---|
| Oggi h: 16:51 | Nuvoloso | 32 | 25 | 66 | 1011 | 10 | O/NO 13 | |
| Oggi h: 15:48 | Nuvoloso | 32 | 26 | 70 | 1011 | 19 | O/SO 20.3 | |
| Oggi h: 14:41 | Molto Nuvoloso | 33 | 26 | 66 | 1012 | 19 | O 13 | |
| Oggi h: 13:40 | Nuvoloso | 32 | 22 | 55 | 1013 | 10 | O 14.8 | |
| Oggi h: 12:40 | Nuvoloso | 33 | 22 | 52 | 1013 | 10 | NO 7.4 | |
| Oggi h: 11:40 | Nuvoloso | 32 | 23 | 59 | 1014 | 10 | N 0 | |
| Oggi h: 10:43 | Molto Nuvoloso | 29 | 23 | 70 | 1015 | 10 | N/NE 7.4 | |
| Oggi h: 09:41 | Molto Nuvoloso | 27 | 24 | 83 | 1015 | 10 | E/NE 7.4 | |
| Oggi h: 08:43 | Coperto | 26 | 23 | 83 | 1015 | 10 | E/NE 7.4 | |
| Oggi h: 07:40 | Coperto | 25 | 23 | 88 | 1014 | 10 | NE 13 | |
| Oggi h: 07:04 | Coperto | 24 | 23 | 94 | 1014 | 11 | NE 13 | |
| Oggi h: 06:40 | Pioggia | 24 | 23 | 94 | 1014 | 8 | NE 14.8 | |
| Oggi h: 05:41 | Pioggia | 24 | 24 | 100 | 1014 | 10 | N/NE 7.4 | |
| Oggi h: 04:40 | Pioggia | 25 | 23 | 88 | 1013 | 10 | NE 7.4 | |
| Oggi h: 03:43 | Molto Nuvoloso | 25 | 24 | 94 | 1013 | 10 | NE 9.3 | |
| Oggi h: 02:43 | Molto Nuvoloso | 25 | 24 | 94 | 1013 | 13 | NE 14.8 | |
| Oggi h: 01:40 | Molto Nuvoloso | 25 | 23 | 88 | 1013 | 11 | NE 20.3 | |
| Oggi h: 01:00 | Molto Nuvoloso | 25 | 23 | 88 | 1014 | 11 | E 11.1 | |
| Oggi h: 00:40 | Pioggia | 26 | 23 | 83 | 1014 | 8 | E 9.3 | |
| Ieri h: 23:42 | Molto Nuvoloso | 29 | 21 | 62 | 1014 | 13 | S 11.1 | |
| Ieri h: 22:44 | Molto Nuvoloso | 29 | 24 | 74 | 1013 | 13 | S 16.7 | |
| Ieri h: 21:41 | Molto Nuvoloso | 31 | 25 | 70 | 1012 | 13 | S/SO 13 | |
| Ieri h: 20:41 | Molto Nuvoloso | 31 | 25 | 70 | 1011 | 10 | S/SO 11.1 | |
| Ieri h: 19:44 | Molto Nuvoloso | 31 | 24 | 66 | 1010 | 10 | O/SO 11.1 | |
| Ieri h: 18:45 | Molto Nuvoloso | 31 | 25 | 70 | 1010 | 10 | O/SO 11.1 | |
| Ieri h: 17:48 | Molto Nuvoloso | 32 | 25 | 66 | 1009 | 10 | O 13 | |



